Skip to main content

NOAA/GLERL Met Station at Muskegon, MI

Previous 3 Hours (2 minute increments)
See also Previous 5 Days (top of hour)
Jump down to Data
Switch to [English][Metric]
Zoom: Click and drag, Pan: shift-click and drag, Unzoom: double-click, Unzoom All






See also 1-day windrose plot


NOAA/GLERL Met Station at Muskegon, MI

Previous 3 Hours (2 minute increments)
See also Previous 5 Days (top of hour only)
Jump up to Graphs
Switch to [English][Metric]
                  Wind  Wind  Wind   Air   Dew   Rel     Sta   PAR
                   Spd   Gst   Dir  Temp    Pt   Hum    Pres uE/m2/
YYYY-MM-DD   EDT   kts   kts   deg     F     F     %   in Hg   sec
2020-09-23 06:40   5.1   5.6   288  63.7  61.2  91.6   29.39     2
2020-09-23 06:38   4.9   5.2   288  63.7  61.1  91.3   29.39     2
2020-09-23 06:36   5.1   5.4   287  63.7  61.0  91.0   29.39     2
2020-09-23 06:34   4.9   5.4   287  63.7  61.0  90.8   29.39     2
2020-09-23 06:32   5.1   5.4   287  63.9  61.1  90.5   29.39     2
2020-09-23 06:30   5.1   5.6   291  63.9  60.9  90.0   29.39     2
2020-09-23 06:28   4.5   5.1   295  64.0  60.9  89.5   29.39     2
2020-09-23 06:26   4.3   4.7   297  64.0  60.9  89.4   29.39     2
2020-09-23 06:24   4.3   4.5   299  64.0  60.9  89.5   29.39     2
2020-09-23 06:22   4.1   4.3   301  64.0  60.9  89.5   29.39     2
2020-09-23 06:20   4.3   4.9   301  64.0  60.9  89.4   29.39     2
2020-09-23 06:18   4.3   4.7   299  64.0  60.8  89.2   29.39     2
2020-09-23 06:16   4.7   4.9   296  64.0  60.8  89.2   29.40     2
2020-09-23 06:14   4.7   4.9   292  64.0  60.8  89.2   29.40     2
2020-09-23 06:12   4.9   5.1   291  63.9  60.8  89.5   29.40     2
2020-09-23 06:10   5.1   5.6   288  64.0  61.2  90.3   29.40     2
2020-09-23 06:08   5.2   5.4   285  64.0  61.1  90.1   29.40     2
2020-09-23 06:06   5.6   6.2   282  63.9  61.0  90.2   29.40     2
2020-09-23 06:04   6.2   6.8   280  63.9  61.1  90.6   29.40     2
2020-09-23 06:02   7.0   7.2   278  63.9  61.1  90.6   29.40     2
2020-09-23 06:00   6.8   7.0   278  63.9  61.1  90.5   29.40     2
2020-09-23 05:58   6.2   7.0   279  63.9  61.0  90.4   29.39     2
2020-09-23 05:56   5.6   6.0   281  63.9  60.9  90.0   29.39     2
2020-09-23 05:54   4.9   5.1   289  63.9  61.0  90.2   29.39     2
2020-09-23 05:52   4.5   4.9   295  64.0  61.1  90.0   29.39     2
2020-09-23 05:50   4.3   4.9   286  64.0  61.0  89.6   29.39     2
2020-09-23 05:48   4.3   4.5   280  64.0  61.0  89.6   29.39     2
2020-09-23 05:46   4.3   4.7   278  64.0  61.1  90.0   29.39     2
2020-09-23 05:44   4.3   4.7   271  64.2  61.2  89.7   29.39     2
2020-09-23 05:42   4.3   4.7   264  64.2  61.2  89.8   29.40     2
2020-09-23 05:40   4.5   4.9   261  64.0  61.2  90.2   29.40     2
2020-09-23 05:38   4.1   4.9   256  63.5  61.1  91.8   29.39     2
2020-09-23 05:36   4.1   4.5   247  63.3  61.0  91.9   29.39     2
2020-09-23 05:34   3.5   3.9   239  63.3  60.9  91.6   29.39     2
2020-09-23 05:32   3.1   3.7   237  63.5  61.1  91.9   29.39     2
2020-09-23 05:30   3.1   3.3   233  63.5  61.2  92.0   29.39     2
2020-09-23 05:28   3.3   3.7   234  63.7  61.3  91.8   29.39     2
2020-09-23 05:26   4.1   4.7   239  63.9  61.4  91.6   29.39     2
2020-09-23 05:24   4.3   4.9   241  64.0  61.4  91.1   29.39     2
2020-09-23 05:22   4.5   4.7   245  64.2  61.4  90.4   29.39     2
2020-09-23 05:20   4.3   5.1   251  64.2  61.2  89.7   29.39     2
2020-09-23 05:18   4.1   4.7   253  64.4  61.1  88.8   29.39     2
2020-09-23 05:16   4.3   4.5   257  64.6  60.9  87.8   29.39     2
2020-09-23 05:14   4.5   5.1   265  64.6  60.7  87.2   29.39     2
2020-09-23 05:12   3.9   4.5   270  64.6  60.8  87.5   29.39     2
2020-09-23 05:10   3.5   4.3   270  64.4  61.1  88.8   29.39     2
2020-09-23 05:08   3.3   3.9   271  64.4  61.3  89.5   29.39     2
2020-09-23 05:06   3.7   4.1   273  64.2  61.3  90.2   29.39     2
2020-09-23 05:04   3.3   3.7   270  64.0  61.2  90.4   29.39     2
2020-09-23 05:02   3.1   3.7   273  63.9  61.0  90.4   29.40     2
2020-09-23 05:00   3.5   4.1   275  63.7  60.8  90.1   29.40     2
2020-09-23 04:58   2.7   3.7   259  64.0  60.9  89.4   29.40     2
2020-09-23 04:56   2.9   3.5   261  64.4  61.5  90.1   29.40     2
2020-09-23 04:54   3.3   4.3   262  64.6  61.7  90.2   29.40     2
2020-09-23 04:52   3.7   4.3   253  64.6  61.7  90.3   29.40     2
2020-09-23 04:50   3.9   5.1   253  64.6  61.8  90.5   29.40     2
2020-09-23 04:48   4.1   5.2   250  64.6  61.8  90.5   29.40     2
2020-09-23 04:46   4.5   5.2   250  64.6  61.8  90.5   29.40     2
2020-09-23 04:44   4.7   5.2   250  64.8  61.9  90.3   29.40     2
2020-09-23 04:42   5.2   6.0   254  64.8  61.9  90.3   29.40     2
2020-09-23 04:40   5.1   5.8   251  64.6  61.7  90.2   29.40     2
2020-09-23 04:38   5.1   5.6   255  64.6  61.8  90.5   29.40     2
2020-09-23 04:36   5.8   7.0   256  64.6  61.9  90.9   29.40     2
2020-09-23 04:34   5.8   8.0   252  64.4  61.9  91.4   29.40     2
2020-09-23 04:32   5.6   6.6   250  64.4  62.0  91.8   29.40     2
2020-09-23 04:30   5.2   5.8   248  64.4  62.0  91.8   29.40     2
2020-09-23 04:28   5.6   6.0   252  64.4  62.1  92.0   29.40     2
2020-09-23 04:26   6.0   6.6   255  64.4  62.2  92.3   29.40     2
2020-09-23 04:24   6.2   7.0   255  64.4  62.2  92.4   29.40     2
2020-09-23 04:22   6.0   6.6   259  64.4  62.2  92.3   29.40     2
2020-09-23 04:20   6.0   6.6   259  64.4  62.1  92.0   29.40     2
2020-09-23 04:18   5.8   6.6   256  64.4  62.0  91.7   29.40     2
2020-09-23 04:16   6.0   6.6   260  64.4  62.0  91.7   29.40     2
2020-09-23 04:14   6.2   7.0   253  64.4  62.0  91.9   29.40     2
2020-09-23 04:12   6.4   7.2   254  64.4  62.0  91.8   29.39     2
2020-09-23 04:10   6.0   7.0   253  64.6  62.1  91.5   29.39     2
2020-09-23 04:08   5.8   7.0   254  64.6  62.0  91.3   29.39     2
2020-09-23 04:06   5.6   7.0   251  64.6  62.0  91.3   29.40     2
2020-09-23 04:04   6.2   7.0   251  64.6  62.1  91.5   29.40     2
2020-09-23 04:02   6.4   7.8   251  64.6  62.1  91.7   29.40     2
2020-09-23 04:00   6.2   6.8   249  64.6  62.1  91.6   29.40     2
2020-09-23 03:58   6.0   6.8   250  64.4  61.9  91.6   29.40     2
2020-09-23 03:56   5.8   6.8   248  64.4  62.0  91.7   29.40     2
2020-09-23 03:54   5.8   6.6   247  64.4  62.1  92.0   29.40     2
2020-09-23 03:52   5.8   6.8   245  64.4  62.2  92.4   29.40     2
2020-09-23 03:50   5.6   6.8   242  64.0  62.0  93.0   29.40     2
2020-09-23 03:48   5.8   6.8   237  64.0  62.1  93.2   29.40     2
2020-09-23 03:46   5.6   6.2   236  63.9  61.9  93.3   29.40     2
2020-09-23 03:44   6.0   6.4   234  63.7  61.8  93.4   29.41     2
2020-09-23 03:42   5.8   6.6   231  63.7  61.7  93.3   29.41     2
2020-09-23 03:40   5.6   6.4   229  63.5  61.6  93.3   29.41     2